createdAt,value
2023-10-06T06:59:15.961Z,3692.00
2023-10-06T07:00:17.151Z,3864.00
2023-10-06T07:01:17.124Z,4020.00
2023-10-06T07:02:17.206Z,4196.00
2023-10-06T07:03:17.280Z,4360.00
2023-10-06T07:04:17.298Z,4544.00
2023-10-06T07:05:17.413Z,4652.00
2023-10-06T07:06:17.672Z,4732.00
2023-10-06T07:07:17.575Z,4832.00
2023-10-06T07:08:17.679Z,4892.00
2023-10-06T07:09:17.693Z,4960.00
2023-10-06T07:10:17.771Z,5072.00
2023-10-06T07:11:17.956Z,5196.00
2023-10-06T07:12:17.958Z,5420.00
2023-10-06T07:13:18.030Z,5564.00
2023-10-06T07:14:18.179Z,5764.00
2023-10-06T07:15:18.185Z,5960.00
2023-10-06T07:16:18.292Z,6140.00
2023-10-06T07:17:18.439Z,6292.00
2023-10-06T07:18:18.510Z,6476.00
2023-10-06T07:19:18.522Z,6732.00
2023-10-06T07:20:18.624Z,6960.00
2023-10-06T07:21:18.711Z,7192.00
2023-10-06T07:22:18.779Z,7420.00
2023-10-06T07:23:18.935Z,7540.00
2023-10-06T07:24:18.935Z,7616.00
2023-10-06T07:25:19.020Z,7696.00
2023-10-06T07:26:19.177Z,7700.00
2023-10-06T07:27:19.206Z,7788.00
2023-10-06T07:28:19.315Z,7712.00
2023-10-06T07:29:19.385Z,7604.00
2023-10-06T07:30:19.434Z,7544.00
2023-10-06T07:31:19.529Z,7524.00
2023-10-06T07:32:19.606Z,7500.00
2023-10-06T07:33:19.713Z,7492.00
2023-10-06T07:34:19.761Z,7528.00
2023-10-06T07:35:19.872Z,7512.00
2023-10-06T07:36:19.947Z,7576.00
2023-10-06T07:37:20.045Z,7644.00
2023-10-06T07:38:20.178Z,7664.00
2023-10-06T07:39:20.225Z,7656.00
2023-10-06T07:40:20.273Z,7556.00
2023-10-06T07:41:20.397Z,7464.00
2023-10-06T07:42:20.467Z,7488.00
2023-10-06T07:43:20.521Z,7616.00
2023-10-06T07:44:20.641Z,7864.00
2023-10-06T07:45:21.817Z,8060.00
2023-10-06T07:46:20.892Z,8272.00
2023-10-06T07:47:20.922Z,8404.00
2023-10-06T07:48:20.900Z,8508.00
2023-10-06T07:49:21.006Z,8660.00
2023-10-06T07:50:21.118Z,8764.00
2023-10-06T07:51:21.293Z,8928.00
2023-10-06T07:52:21.270Z,9064.00
2023-10-06T07:53:21.411Z,9240.00
2023-10-06T07:54:21.423Z,9536.00
2023-10-06T07:55:21.524Z,9956.00
2023-10-06T07:56:21.622Z,10224.00
2023-10-06T07:57:21.710Z,10356.00
2023-10-06T07:58:21.807Z,10472.00
2023-10-06T07:59:21.891Z,10624.00
2023-10-06T08:00:21.941Z,10704.00
2023-10-06T08:01:22.068Z,10792.00
2023-10-06T08:02:22.149Z,10868.00
2023-10-06T08:03:22.183Z,10972.00
2023-10-06T08:04:22.264Z,11076.00
2023-10-06T08:05:22.353Z,11072.00
2023-10-06T08:06:22.417Z,11120.00
2023-10-06T08:07:22.488Z,11156.00
2023-10-06T08:08:22.611Z,11108.00
2023-10-06T08:09:22.636Z,11084.00
2023-10-06T08:10:22.727Z,11064.00
2023-10-06T08:11:23.216Z,11020.00
2023-10-06T08:12:22.921Z,11140.00
2023-10-06T08:13:23.032Z,11248.00
2023-10-06T08:14:23.111Z,11144.00
2023-10-06T08:15:23.137Z,10972.00
2023-10-06T08:16:23.238Z,11052.00
2023-10-06T08:17:23.358Z,11020.00
2023-10-06T08:18:23.385Z,10768.00
2023-10-06T08:19:23.446Z,10352.00
2023-10-06T08:20:23.591Z,9956.00
2023-10-06T08:21:23.571Z,9424.00
2023-10-06T08:22:23.650Z,8828.00
2023-10-06T08:23:23.734Z,8228.00
2023-10-06T08:24:23.821Z,7748.00
2023-10-06T08:25:23.903Z,7456.00
2023-10-06T08:26:23.985Z,7464.00
2023-10-06T08:27:24.046Z,7124.00
2023-10-06T08:28:24.153Z,7048.00
2023-10-06T08:29:24.246Z,7000.00
2023-10-06T08:30:24.294Z,6780.00
2023-10-06T08:31:24.418Z,6536.00
2023-10-06T08:32:24.510Z,6396.00
2023-10-06T08:33:24.600Z,6628.00
2023-10-06T08:34:24.633Z,7240.00
2023-10-06T08:35:24.737Z,8424.00
2023-10-06T08:36:24.746Z,9444.00
2023-10-06T08:37:24.828Z,13344.00
2023-10-06T08:38:24.989Z,13536.00
2023-10-06T08:39:25.030Z,12876.00
2023-10-06T08:40:25.125Z,14460.00
2023-10-06T08:41:25.245Z,14556.00
2023-10-06T08:42:25.325Z,13968.00
2023-10-06T08:43:25.343Z,15044.00
2023-10-06T08:44:25.512Z,13124.00
2023-10-06T08:45:25.578Z,14908.00
2023-10-06T08:46:25.649Z,11392.00
2023-10-06T08:47:32.343Z,9592.00
2023-10-06T08:48:25.849Z,11320.00
2023-10-06T08:49:25.955Z,10580.00
2023-10-06T08:50:26.001Z,10680.00
2023-10-06T08:51:25.998Z,11796.00
2023-10-06T08:52:26.078Z,12608.00
2023-10-06T08:53:26.189Z,14140.00
2023-10-06T08:54:26.236Z,25408.00
2023-10-06T08:55:26.323Z,27136.00
2023-10-06T08:56:26.411Z,21728.00
2023-10-06T08:57:26.449Z,23872.00
2023-10-06T08:58:26.518Z,24768.00
2023-10-06T08:59:26.690Z,28864.00
2023-10-06T09:00:26.732Z,27584.00
2023-10-06T09:01:26.788Z,27392.00
2023-10-06T09:02:26.990Z,24096.00
2023-10-06T09:03:28.819Z,26720.00
2023-10-06T09:04:27.053Z,34944.00
2023-10-06T09:05:27.151Z,35072.00
2023-10-06T09:06:27.222Z,36512.00
2023-10-06T09:07:27.330Z,36832.00
2023-10-06T09:08:27.427Z,33280.00
2023-10-06T09:09:27.586Z,36192.00
2023-10-06T09:10:27.601Z,36064.00
2023-10-06T09:11:27.686Z,32928.00
2023-10-06T09:12:27.770Z,34528.00
2023-10-06T09:13:27.797Z,30336.00
2023-10-06T09:14:27.886Z,30176.00
2023-10-06T09:15:27.948Z,29824.00
2023-10-06T09:16:28.099Z,31136.00
2023-10-06T09:17:28.136Z,31520.00
2023-10-06T09:18:28.171Z,33216.00
2023-10-06T09:19:28.222Z,36192.00
2023-10-06T09:20:30.755Z,37856.00
2023-10-06T09:21:28.390Z,37664.00
2023-10-06T09:22:28.465Z,37600.00
2023-10-06T09:23:28.582Z,41472.00
2023-10-06T09:24:28.643Z,42400.00
2023-10-06T09:25:28.704Z,44640.00
2023-10-06T09:26:28.969Z,46208.00
2023-10-06T09:27:28.872Z,46848.00
2023-10-06T09:28:28.943Z,46880.00
2023-10-06T09:29:29.047Z,44160.00
2023-10-06T09:30:29.101Z,43616.00
2023-10-06T09:31:29.251Z,44416.00
2023-10-06T09:32:29.961Z,44064.00
2023-10-06T09:33:29.342Z,43424.00
2023-10-06T09:34:29.436Z,43712.00
2023-10-06T09:35:29.519Z,35840.00
2023-10-06T09:36:42.586Z,34112.00
2023-10-06T09:37:29.685Z,38496.00
2023-10-06T09:38:29.783Z,39584.00
2023-10-06T09:39:29.842Z,38016.00
2023-10-06T09:40:29.912Z,39296.00
2023-10-06T09:41:30.046Z,41344.00
2023-10-06T09:42:30.076Z,41216.00
2023-10-06T09:43:30.133Z,40032.00
2023-10-06T09:44:30.299Z,33408.00
2023-10-06T09:45:30.300Z,34848.00
2023-10-06T09:46:30.370Z,32736.00
2023-10-06T09:47:30.560Z,33024.00
2023-10-06T09:48:30.545Z,35200.00
2023-10-06T09:49:30.583Z,35648.00
2023-10-06T09:50:30.708Z,35072.00
2023-10-06T09:51:30.751Z,39648.00
2023-10-06T09:52:30.844Z,42176.00
2023-10-06T09:53:30.907Z,38976.00
2023-10-06T09:54:30.972Z,41248.00
2023-10-06T09:55:31.050Z,34464.00
2023-10-06T09:56:31.186Z,31072.00
2023-10-06T09:57:31.200Z,31232.00
2023-10-06T09:58:31.288Z,30976.00
2023-10-06T09:59:31.416Z,33312.00
2023-10-06T10:00:31.557Z,36160.00
2023-10-06T10:01:31.732Z,34144.00
2023-10-06T10:02:31.763Z,40064.00
2023-10-06T10:03:31.857Z,38080.00
2023-10-06T10:04:31.770Z,34912.00
2023-10-06T10:05:31.893Z,33280.00
2023-10-06T10:06:31.951Z,29280.00
2023-10-06T10:07:32.032Z,31488.00
2023-10-06T10:08:32.127Z,31776.00
2023-10-06T10:09:32.217Z,33216.00
2023-10-06T10:10:32.275Z,36992.00
2023-10-06T10:11:32.456Z,41216.00
2023-10-06T10:12:32.424Z,41312.00
2023-10-06T10:13:32.494Z,44544.00
2023-10-06T10:14:32.604Z,40000.00
2023-10-06T10:15:32.681Z,34592.00
2023-10-06T10:16:32.822Z,41792.00
2023-10-06T10:17:32.884Z,45792.00
2023-10-06T10:18:32.966Z,45760.00
2023-10-06T10:19:32.985Z,44512.00
2023-10-06T10:20:33.091Z,46592.00
2023-10-06T10:21:33.144Z,48832.00
2023-10-06T10:22:33.278Z,47360.00
2023-10-06T10:23:33.306Z,45280.00
2023-10-06T10:25:11.536Z,47968.00
2023-10-06T10:25:33.454Z,50560.00
2023-10-06T10:26:33.582Z,41120.00
2023-10-06T10:27:33.629Z,47264.00
2023-10-06T10:28:33.705Z,47872.00
2023-10-06T10:29:33.773Z,50624.00
2023-10-06T10:30:33.834Z,49504.00
2023-10-06T10:31:42.097Z,45632.00
2023-10-06T10:32:34.018Z,47840.00
2023-10-06T10:33:34.049Z,48096.00
2023-10-06T10:34:34.117Z,46464.00
2023-10-06T10:35:34.210Z,38688.00
2023-10-06T10:36:34.258Z,34976.00
2023-10-06T10:37:34.341Z,53824.00
2023-10-06T10:38:34.535Z,49024.00
2023-10-06T10:39:34.481Z,52576.00
2023-10-06T10:40:34.552Z,56000.00
2023-10-06T10:41:34.646Z,56160.00
2023-10-06T10:42:34.730Z,57952.00
2023-10-06T10:43:34.814Z,58336.00
2023-10-06T10:44:34.887Z,55296.00
2023-10-06T10:45:34.970Z,55328.00
2023-10-06T10:46:35.049Z,55200.00
2023-10-06T10:47:35.264Z,58720.00
2023-10-06T10:48:35.206Z,56800.00
2023-10-06T10:49:35.274Z,55456.00
2023-10-06T10:50:35.403Z,43808.00
2023-10-06T10:51:35.423Z,52928.00
2023-10-06T10:52:35.517Z,50496.00
2023-10-06T10:53:35.603Z,51424.00
2023-10-06T10:54:35.676Z,52480.00
2023-10-06T10:55:35.827Z,56544.00
2023-10-06T10:56:35.861Z,57184.00
2023-10-06T10:57:35.939Z,57376.00
2023-10-06T10:58:36.015Z,57568.00
2023-10-06T10:59:36.075Z,57984.00
2023-10-06T11:00:36.181Z,59200.00
2023-10-06T11:01:36.218Z,59424.00
2023-10-06T11:02:36.364Z,59520.00
2023-10-06T11:03:36.445Z,58208.00
2023-10-06T11:04:36.505Z,58144.00
2023-10-06T11:05:36.589Z,61088.00
2023-10-06T11:06:36.639Z,62240.00
2023-10-06T11:07:36.777Z,62016.00
2023-10-06T11:08:36.873Z,61600.00
2023-10-06T11:09:36.933Z,61344.00
2023-10-06T11:10:36.999Z,61504.00
2023-10-06T11:11:37.096Z,61888.00
2023-10-06T11:12:37.172Z,62496.00
2023-10-06T11:13:52.113Z,65440.00
2023-10-06T11:14:37.338Z,67648.00
2023-10-06T11:15:37.429Z,67392.00
2023-10-06T11:16:37.564Z,65280.00
2023-10-06T11:17:37.645Z,56384.00
2023-10-06T11:18:37.735Z,58560.00
2023-10-06T11:19:37.809Z,37152.00
2023-10-06T11:20:37.996Z,16256.00
2023-10-06T11:21:37.962Z,12380.00
2023-10-06T11:22:38.022Z,11820.00
2023-10-06T11:23:38.145Z,11752.00
2023-10-06T11:24:38.193Z,11400.00
2023-10-06T11:25:38.291Z,11208.00
2023-10-06T11:26:38.397Z,10976.00
2023-10-06T11:27:38.464Z,10856.00
2023-10-06T11:28:38.537Z,10960.00
2023-10-06T11:29:38.685Z,10680.00
2023-10-06T11:30:38.680Z,10872.00
2023-10-06T11:31:38.742Z,10856.00
2023-10-06T11:32:38.914Z,11584.00
2023-10-06T11:33:38.895Z,12524.00
2023-10-06T11:34:38.969Z,13524.00
2023-10-06T11:35:39.043Z,13920.00
2023-10-06T11:36:39.100Z,14384.00
2023-10-06T11:37:39.183Z,15236.00
2023-10-06T11:38:39.246Z,16352.00
2023-10-06T11:39:39.330Z,17312.00
2023-10-06T11:40:39.403Z,18080.00
2023-10-06T11:41:39.479Z,18848.00
2023-10-06T11:42:39.609Z,19424.00
2023-10-06T11:43:39.662Z,19744.00
2023-10-06T11:44:39.778Z,18496.00
2023-10-06T11:45:39.818Z,17088.00
2023-10-06T11:46:39.877Z,15600.00
2023-10-06T11:47:40.059Z,15252.00
2023-10-06T11:48:40.191Z,15264.00
2023-10-06T11:49:40.138Z,15904.00
2023-10-06T11:50:40.249Z,15872.00
2023-10-06T11:51:40.331Z,16160.00
2023-10-06T11:52:40.372Z,16928.00
2023-10-06T11:53:40.513Z,17728.00
2023-10-06T11:54:40.544Z,18144.00
2023-10-06T11:55:40.627Z,18336.00
2023-10-06T11:56:40.742Z,17920.00
2023-10-06T11:57:40.761Z,17568.00
2023-10-06T11:58:40.822Z,17088.00
2023-10-06T11:59:40.902Z,16960.00
2023-10-06T12:00:40.964Z,17088.00
2023-10-06T12:01:41.169Z,17216.00
2023-10-06T12:02:41.260Z,17184.00
2023-10-06T12:03:41.413Z,17248.00
2023-10-06T12:04:41.322Z,17440.00
2023-10-06T12:05:41.377Z,18336.00
2023-10-06T12:06:41.451Z,18848.00
2023-10-06T12:07:41.562Z,20608.00
2023-10-06T12:08:41.628Z,21568.00
2023-10-06T12:09:41.700Z,22464.00
2023-10-06T12:10:41.757Z,23264.00
2023-10-06T12:11:41.826Z,23360.00
2023-10-06T12:12:41.902Z,23008.00
2023-10-06T12:13:41.995Z,22816.00
2023-10-06T12:14:42.099Z,22560.00
2023-10-06T12:15:43.099Z,22016.00
2023-10-06T12:16:42.315Z,21472.00
2023-10-06T12:17:42.369Z,21984.00
2023-10-06T12:18:42.359Z,22720.00
2023-10-06T12:19:42.471Z,22720.00
2023-10-06T12:20:42.637Z,22336.00
2023-10-06T12:21:42.645Z,22496.00
2023-10-06T12:22:42.717Z,22528.00
2023-10-06T12:23:42.792Z,22464.00
2023-10-06T12:24:42.860Z,21856.00
2023-10-06T12:25:42.971Z,21632.00
2023-10-06T12:26:43.048Z,21216.00
2023-10-06T12:27:43.117Z,20896.00
2023-10-06T12:28:43.195Z,20384.00
2023-10-06T12:29:43.272Z,20000.00
2023-10-06T12:30:43.448Z,20032.00
2023-10-06T12:31:43.444Z,19808.00
2023-10-06T12:32:43.604Z,19744.00
2023-10-06T12:33:43.685Z,19552.00
2023-10-06T12:34:43.661Z,19040.00
2023-10-06T12:35:43.781Z,19200.00
2023-10-06T12:36:43.847Z,19072.00
2023-10-06T12:37:43.937Z,18432.00
2023-10-06T12:38:44.026Z,17888.00
2023-10-06T12:39:44.084Z,17376.00
2023-10-06T12:40:44.284Z,16800.00
2023-10-06T12:41:44.414Z,16064.00
2023-10-06T12:42:44.416Z,15288.00
2023-10-06T12:43:44.477Z,14712.00
2023-10-06T12:44:44.566Z,14376.00
2023-10-06T12:45:44.601Z,14432.00
2023-10-06T12:46:44.735Z,14584.00
2023-10-06T12:47:44.849Z,14932.00
2023-10-06T12:48:44.821Z,15516.00
2023-10-06T12:49:45.035Z,16096.00
2023-10-06T12:50:44.999Z,16160.00
2023-10-06T12:51:45.087Z,16000.00
2023-10-06T12:52:45.143Z,15652.00
2023-10-06T12:53:45.235Z,15440.00
2023-10-06T12:54:45.368Z,15212.00
2023-10-06T12:55:45.422Z,14824.00
2023-10-06T12:56:45.480Z,14568.00
2023-10-06T12:57:45.592Z,14232.00
2023-10-06T12:58:45.677Z,14048.00
2023-10-06T12:59:45.764Z,13908.00
2023-10-06T13:00:45.924Z,13952.00
2023-10-06T13:01:45.975Z,14172.00
2023-10-06T13:02:46.156Z,14392.00
2023-10-06T13:03:46.361Z,14480.00
2023-10-06T13:04:46.790Z,14632.00
2023-10-06T13:05:46.284Z,14660.00
2023-10-06T13:06:46.409Z,14716.00
2023-10-06T13:07:46.447Z,14700.00
2023-10-06T13:08:46.543Z,14452.00
2023-10-06T13:09:46.606Z,14120.00
2023-10-06T13:10:46.661Z,13800.00
2023-10-06T13:11:46.752Z,13648.00
2023-10-06T13:12:46.824Z,13780.00
2023-10-06T13:13:46.913Z,14208.00
2023-10-06T13:14:46.992Z,15168.00
2023-10-06T13:15:47.043Z,16352.00
2023-10-06T13:16:47.096Z,17440.00
2023-10-06T13:17:47.244Z,18400.00
2023-10-06T13:18:47.284Z,18944.00
2023-10-06T13:19:47.398Z,19072.00
2023-10-06T13:20:47.517Z,18592.00
2023-10-06T13:21:47.548Z,18048.00
2023-10-06T13:22:47.603Z,17440.00
2023-10-06T13:23:47.682Z,17024.00
2023-10-06T13:24:47.813Z,16832.00
2023-10-06T13:25:47.869Z,16768.00
2023-10-06T13:26:47.970Z,17024.00
2023-10-06T13:27:48.085Z,17088.00
2023-10-06T13:28:48.170Z,17312.00
2023-10-06T13:29:48.225Z,17888.00
2023-10-06T13:30:48.310Z,18368.00
2023-10-06T13:31:48.492Z,18592.00
2023-10-06T13:32:48.540Z,19104.00
2023-10-06T13:33:48.538Z,16128.00
2023-10-06T13:34:48.641Z,16160.00
2023-10-06T13:35:48.706Z,16352.00
2023-10-06T13:36:48.784Z,17024.00
2023-10-06T13:37:48.853Z,17696.00
2023-10-06T13:38:48.905Z,18144.00
2023-10-06T13:39:48.987Z,17280.00
2023-10-06T13:40:49.052Z,17440.00
2023-10-06T13:41:49.142Z,17504.00
2023-10-06T13:42:49.228Z,17504.00
2023-10-06T13:43:49.294Z,17344.00
2023-10-06T13:44:49.414Z,17088.00
2023-10-06T13:45:49.475Z,16704.00
2023-10-06T13:46:49.565Z,16096.00
2023-10-06T13:47:49.694Z,15384.00
2023-10-06T13:48:49.848Z,14872.00
2023-10-06T13:49:50.792Z,14428.00
2023-10-06T13:50:49.900Z,14044.00
2023-10-06T13:51:49.938Z,13864.00
2023-10-06T13:52:50.041Z,13776.00
2023-10-06T13:53:50.135Z,13880.00
2023-10-06T13:54:50.262Z,13892.00
2023-10-06T13:55:50.317Z,14096.00
2023-10-06T13:56:50.399Z,14196.00
2023-10-06T13:57:50.460Z,14404.00
2023-10-06T13:58:50.541Z,14312.00
2023-10-06T13:59:50.637Z,13884.00
2023-10-06T14:00:50.693Z,13692.00
2023-10-06T14:01:50.773Z,13920.00
2023-10-06T14:02:50.976Z,14672.00
2023-10-06T14:03:51.116Z,15840.00
2023-10-06T14:04:51.034Z,16704.00
2023-10-06T14:05:51.094Z,16608.00
2023-10-06T14:06:51.219Z,16448.00
2023-10-06T14:07:51.274Z,16576.00
2023-10-06T14:08:51.365Z,16672.00
2023-10-06T14:09:51.439Z,16672.00
2023-10-06T14:10:51.542Z,16864.00
2023-10-06T14:11:51.608Z,17056.00
2023-10-06T14:12:51.685Z,17152.00
2023-10-06T14:13:51.746Z,17088.00
2023-10-06T14:14:51.850Z,17088.00
2023-10-06T14:15:51.981Z,16896.00
2023-10-06T14:16:52.072Z,16192.00
2023-10-06T14:17:52.168Z,15872.00
2023-10-06T14:18:52.198Z,15216.00
2023-10-06T14:19:52.295Z,14592.00
2023-10-06T14:20:52.393Z,13828.00
2023-10-06T14:21:52.488Z,12996.00
2023-10-06T14:22:52.546Z,12336.00
2023-10-06T14:23:52.612Z,11384.00
2023-10-06T14:24:52.719Z,10832.00
2023-10-06T14:25:52.783Z,10668.00
2023-10-06T14:26:52.884Z,10696.00
2023-10-06T14:27:52.946Z,10672.00
2023-10-06T14:28:53.048Z,10728.00
2023-10-06T14:29:53.114Z,10760.00
2023-10-06T14:30:53.265Z,10560.00
2023-10-06T14:31:53.311Z,10376.00
2023-10-06T14:32:53.371Z,10112.00
2023-10-06T14:33:53.458Z,9884.00
2023-10-06T14:34:53.567Z,9808.00
2023-10-06T14:35:53.642Z,9652.00
2023-10-06T14:36:53.749Z,9420.00
2023-10-06T14:37:53.783Z,9024.00
2023-10-06T14:38:53.886Z,8712.00
2023-10-06T14:39:53.928Z,8472.00
2023-10-06T14:40:54.001Z,8564.00
2023-10-06T14:41:54.110Z,8400.00
2023-10-06T14:42:54.186Z,8204.00
2023-10-06T14:43:54.277Z,8244.00
2023-10-06T14:44:54.355Z,8440.00
2023-10-06T14:45:54.447Z,8640.00
2023-10-06T14:46:54.695Z,8952.00
2023-10-06T14:47:54.663Z,9256.00
2023-10-06T14:48:54.701Z,9372.00
2023-10-06T14:49:54.752Z,9364.00
2023-10-06T14:50:54.840Z,9384.00
2023-10-06T14:51:55.080Z,9520.00
2023-10-06T14:52:55.133Z,9584.00
2023-10-06T14:53:55.104Z,9552.00
2023-10-06T14:54:55.181Z,9820.00
2023-10-06T14:55:55.255Z,10268.00
2023-10-06T14:56:55.441Z,10368.00
2023-10-06T14:57:55.428Z,10352.00
2023-10-06T14:58:55.485Z,10056.00
2023-10-06T14:59:55.548Z,9924.00
2023-10-06T15:00:55.655Z,9804.00
2023-10-06T15:01:55.713Z,9652.00
2023-10-06T15:02:55.916Z,9224.00
2023-10-06T15:03:55.948Z,8612.00
2023-10-06T15:04:55.959Z,8028.00
2023-10-06T15:05:56.046Z,7632.00
2023-10-06T15:06:56.123Z,7588.00
2023-10-06T15:07:56.233Z,7768.00
2023-10-06T15:08:56.285Z,7908.00
2023-10-06T15:09:56.376Z,7936.00
2023-10-06T15:10:56.448Z,7760.00
2023-10-06T15:11:56.525Z,7552.00
2023-10-06T15:12:56.620Z,7448.00
2023-10-06T15:13:56.660Z,7172.00
2023-10-06T15:14:56.739Z,6836.00
2023-10-06T15:15:56.840Z,6576.00
2023-10-06T15:16:56.895Z,6472.00
2023-10-06T15:18:09.139Z,6400.00
2023-10-06T15:18:57.119Z,6456.00
2023-10-06T15:19:57.121Z,6532.00
2023-10-06T15:20:57.226Z,6596.00
2023-10-06T15:21:57.385Z,6624.00
2023-10-06T15:22:57.427Z,6472.00
2023-10-06T15:23:57.485Z,6264.00
2023-10-06T15:24:57.559Z,6040.00
2023-10-06T15:25:57.637Z,5676.00
2023-10-06T15:26:57.719Z,5296.00
2023-10-06T15:27:57.805Z,4996.00
2023-10-06T15:28:57.908Z,4808.00
2023-10-06T15:29:57.954Z,4724.00
2023-10-06T15:30:58.039Z,4764.00
2023-10-06T15:31:58.232Z,4900.00
2023-10-06T15:32:58.250Z,5092.00
2023-10-06T15:33:58.327Z,5196.00
2023-10-06T15:34:58.418Z,5180.00
2023-10-06T15:35:58.484Z,5100.00
2023-10-06T15:36:58.559Z,5000.00
2023-10-06T15:37:58.702Z,4784.00
2023-10-06T15:38:58.760Z,4604.00
2023-10-06T15:39:58.841Z,4476.00
2023-10-06T15:40:58.925Z,4472.00
2023-10-06T15:41:58.986Z,4468.00
2023-10-06T15:43:17.346Z,4412.00
2023-10-06T15:43:59.900Z,4344.00
2023-10-06T15:44:59.260Z,4264.00
2023-10-06T15:45:59.386Z,4196.00
2023-10-06T15:46:59.434Z,4132.00
2023-10-06T15:47:59.500Z,4024.00
2023-10-06T15:48:59.564Z,3916.00
2023-10-06T15:50:10.736Z,3788.00
2023-10-06T15:50:59.815Z,3652.00
2023-10-06T15:51:59.828Z,3524.00
2023-10-06T15:52:59.948Z,3432.00
2023-10-06T15:54:00.012Z,3360.00
2023-10-06T15:55:00.166Z,3276.00
2023-10-06T15:56:00.233Z,3148.00
2023-10-06T15:57:00.243Z,3036.00
2023-10-06T15:58:00.332Z,2944.00
2023-10-06T15:59:00.453Z,2864.00
2023-10-06T16:00:02.111Z,2780.00
2023-10-06T16:01:00.561Z,2712.00
2023-10-06T16:02:00.951Z,2644.00
2023-10-06T16:03:00.854Z,2592.00
2023-10-06T16:04:00.805Z,2544.00
2023-10-06T16:05:00.885Z,2500.00
2023-10-06T16:06:00.936Z,2444.00
2023-10-06T16:07:01.010Z,2392.00
2023-10-06T16:08:01.136Z,2320.00
2023-10-06T16:09:01.175Z,2244.00
2023-10-06T16:10:01.264Z,2188.00
2023-10-06T16:11:01.505Z,2136.00
2023-10-06T16:12:01.445Z,2096.00
2023-10-06T16:13:01.518Z,2048.00
2023-10-06T16:14:01.615Z,2016.00
2023-10-06T16:15:01.682Z,1972.00
2023-10-06T16:16:11.397Z,1924.00
2023-10-06T16:17:02.721Z,1864.00
2023-10-06T16:18:01.971Z,1804.00
2023-10-06T16:19:02.106Z,1736.00
2023-10-06T16:20:02.145Z,1676.00
2023-10-06T16:21:02.261Z,1624.00
2023-10-06T16:22:02.283Z,1568.00
2023-10-06T16:23:02.409Z,1504.00
2023-10-06T16:24:02.468Z,1444.00
2023-10-06T16:25:02.533Z,1384.00
2023-10-06T16:26:02.674Z,1328.00
2023-10-06T16:27:02.714Z,1272.00
2023-10-06T16:28:03.539Z,1212.00
2023-10-06T16:29:02.923Z,1152.00
2023-10-06T16:30:02.982Z,1096.00
2023-10-06T16:31:03.091Z,1036.00
2023-10-06T16:32:03.333Z,972.00
2023-10-06T16:33:03.249Z,912.00
2023-10-06T16:34:03.303Z,852.00
2023-10-06T16:35:04.565Z,800.00
2023-10-06T16:36:03.471Z,748.00
2023-10-06T16:37:03.579Z,704.00
2023-10-06T16:38:03.655Z,660.00
2023-10-06T16:39:03.730Z,616.00
2023-10-06T16:40:03.783Z,572.00
2023-10-06T16:41:03.914Z,536.00
2023-10-06T16:42:03.952Z,496.00
2023-10-06T16:43:04.017Z,456.00
2023-10-06T16:44:04.141Z,416.00
2023-10-06T16:45:04.212Z,380.00
2023-10-06T16:46:04.368Z,348.00
2023-10-06T16:47:04.438Z,320.00
2023-10-06T16:48:04.524Z,288.00
2023-10-06T16:49:07.454Z,260.00
2023-10-06T16:50:04.653Z,236.00
2023-10-06T16:51:04.702Z,220.00
2023-10-06T16:52:04.772Z,208.00
2023-10-06T16:53:04.878Z,196.00
2023-10-06T16:54:04.913Z,176.00
2023-10-06T16:55:05.004Z,164.00
2023-10-06T16:56:05.127Z,152.00
2023-10-06T16:57:05.157Z,136.00
2023-10-06T16:58:05.227Z,124.00
